Time;durP1;ratioP1;P1;durP2;ratioP2;P2;SDS_P1;SDS_P2;PMS_P1;PMS_P2;Temp;Humidity;BMP_temperature;BMP_pressure;BME280_temperature;BME280_humidity;BME280_pressure;Samples;Min_cycle;Max_cycle;Signal;HPM_P1;HPM_P2
2022/11/05 00:10:25;;;;;;;10.40;2.75;;;7.00;91.30;;;;;;5102187;28;20096;-77
2022/11/05 00:18:21;;;;;;;9.07;2.80;;;6.90;91.40;;;;;;5097981;28;20039;-78
2022/11/05 00:20:47;;;;;;;7.68;3.58;;;6.90;91.30;;;;;;5078326;28;20487;-78
2022/11/05 00:26:03;;;;;;;13.68;5.32;;;6.90;91.30;;;;;;5111971;28;20099;-78
2022/11/05 00:28:29;;;;;;;12.95;5.95;;;6.90;91.20;;;;;;5112267;28;20131;-78
2022/11/05 00:31:10;;;;;;;10.45;3.97;;;6.90;91.30;;;;;;5112291;28;20048;-77
2022/11/05 00:33:37;;;;;;;12.65;4.03;;;6.80;91.20;;;;;;5095216;28;20126;-80
2022/11/05 00:36:04;;;;;;;9.35;3.53;;;6.80;91.40;;;;;;5112297;28;20050;-77
2022/11/05 00:38:30;;;;;;;7.55;3.80;;;6.80;91.60;;;;;;5095370;28;20089;-78
2022/11/05 00:40:55;;;;;;;18.55;3.72;;;6.70;91.80;;;;;;5112136;28;20428;-78
2022/11/05 00:46:05;;;;;;;11.23;3.33;;;6.70;91.90;;;;;;5112149;28;20044;-77
2022/11/05 00:51:15;;;;;;;7.22;4.32;;;6.60;92.30;;;;;;5097693;28;20044;-79
2022/11/05 00:53:40;;;;;;;11.63;4.95;;;6.60;92.80;;;;;;5094782;28;20040;-77
2022/11/05 00:56:06;;;;;;;11.45;4.85;;;6.60;92.80;;;;;;5095908;28;20031;-77
2022/11/05 00:58:32;;;;;;;13.07;4.30;;;6.60;93.00;;;;;;5114966;28;20089;-77
2022/11/05 01:00:59;;;;;;;12.77;4.50;;;6.60;92.80;;;;;;5097570;28;20044;-77
2022/11/05 01:03:28;;;;;;;8.32;3.67;;;6.60;92.90;;;;;;5114562;28;20043;-81
2022/11/05 01:05:56;;;;;;;13.18;4.22;;;6.50;92.90;;;;;;5114518;28;20039;-80
2022/11/05 01:08:23;;;;;;;12.52;4.97;;;6.60;92.80;;;;;;5114632;28;20058;-77
2022/11/05 01:10:52;;;;;;;15.05;5.65;;;6.60;92.60;;;;;;5080713;28;20039;-78
2022/11/05 01:13:20;;;;;;;11.13;4.90;;;6.60;92.40;;;;;;5097770;28;20043;-80
2022/11/05 01:15:46;;;;;;;12.25;5.07;;;6.50;92.50;;;;;;5081329;28;20085;-79
2022/11/05 01:18:15;;;;;;;9.30;4.97;;;6.50;92.50;;;;;;5098352;28;20043;-77
2022/11/05 01:20:41;;;;;;;11.05;5.35;;;6.50;92.30;;;;;;5115353;28;20462;-78
2022/11/05 01:23:07;;;;;;;8.43;4.32;;;6.50;92.20;;;;;;5115510;28;20040;-77
2022/11/05 01:25:33;;;;;;;11.30;3.25;;;6.50;92.10;;;;;;5081453;28;20127;-79
2022/11/05 01:27:59;;;;;;;7.75;4.07;;;6.50;92.10;;;;;;5098353;28;20071;-77
2022/11/05 01:30:25;;;;;;;9.90;3.38;;;6.60;92.10;;;;;;5098178;28;20069;-78
2022/11/05 01:32:51;;;;;;;6.53;3.33;;;6.60;92.00;;;;;;5064497;28;20051;-77
2022/11/05 01:35:17;;;;;;;11.05;3.80;;;6.60;92.00;;;;;;5081102;28;20043;-78
2022/11/05 01:37:43;;;;;;;6.50;3.05;;;6.60;91.90;;;;;;5097937;28;20035;-78
2022/11/05 01:40:15;;;;;;;6.47;3.50;;;6.60;91.90;;;;;;5115257;28;20035;-77
2022/11/05 01:42:41;;;;;;;7.68;4.50;;;6.50;91.90;;;;;;5115197;28;20126;-77
2022/11/05 01:45:25;;;;;;;10.85;4.63;;;6.50;91.90;;;;;;5114871;28;20562;-78
2022/11/05 01:48:07;;;;;;;6.70;4.22;;;6.60;91.90;;;;;;5114847;28;20075;-77
2022/11/05 01:50:51;;;;;;;8.25;4.35;;;6.50;91.90;;;;;;5114771;28;20035;-78
2022/11/05 01:53:29;;;;;;;9.83;4.40;;;6.50;91.90;;;;;;5097728;28;20050;-76
2022/11/05 01:56:07;;;;;;;8.20;3.38;;;6.50;92.10;;;;;;5097604;28;20364;-78
2022/11/05 01:58:48;;;;;;;5.65;2.30;;;6.50;92.20;;;;;;5097586;28;20046;-77
2022/11/05 02:01:15;;;;;;;6.72;2.13;;;6.50;92.20;;;;;;5097539;28;20124;-77
2022/11/05 02:03:42;;;;;;;7.03;3.20;;;6.50;92.30;;;;;;5114528;28;20051;-79
2022/11/05 02:06:08;;;;;;;10.57;2.10;;;6.60;92.30;;;;;;5114521;28;20039;-77
2022/11/05 02:08:45;;;;;;;4.22;1.52;;;6.60;92.60;;;;;;5080487;28;20134;-77
2022/11/05 02:11:17;;;;;;;4.90;1.50;;;6.70;91.90;;;;;;5097462;28;20517;-79
2022/11/05 02:13:43;;;;;;;6.07;1.50;;;6.90;91.40;;;;;;5114466;28;20035;-78
2022/11/05 02:16:33;;;;;;;5.90;1.75;;;6.90;91.40;;;;;;5114066;28;20100;-77
2022/11/05 02:19:08;;;;;;;6.68;1.88;;;6.90;91.80;;;;;;5097162;28;20040;-77
2022/11/05 02:21:56;;;;;;;5.43;2.03;;;6.90;91.60;;;;;;5097151;28;20032;-78
2022/11/05 02:25:07;;;;;;;3.15;1.55;;;7.00;91.50;;;;;;5114174;28;20056;-78
2022/11/05 02:27:50;;;;;;;2.70;1.50;;;7.10;91.90;;;;;;5113962;28;20081;-79
2022/11/05 02:30:38;;;;;;;3.83;1.30;;;7.10;91.60;;;;;;5097297;28;20036;-78
2022/11/05 02:33:20;;;;;;;8.85;2.30;;;7.30;91.80;;;;;;5096877;28;20547;-77
2022/11/05 02:36:07;;;;;;;5.80;1.52;;;7.30;92.30;;;;;;5114277;28;20079;-77
2022/11/05 02:38:45;;;;;;;4.22;1.40;;;7.40;92.10;;;;;;5096740;28;20156;-76
2022/11/05 02:41:20;;;;;;;5.43;1.80;;;7.50;92.30;;;;;;5113778;28;20043;-76
2022/11/05 02:43:55;;;;;;;5.68;1.30;;;7.60;92.40;;;;;;5113675;28;20511;-75
2022/11/05 02:46:50;;;;;;;6.15;1.13;;;7.70;92.60;;;;;;5096700;28;20130;-77
2022/11/05 02:49:30;;;;;;;4.88;1.20;;;7.70;92.90;;;;;;5113602;28;20046;-78
2022/11/05 02:52:00;;;;;;;7.10;1.55;;;7.80;92.60;;;;;;5113831;28;20519;-76
2022/11/05 02:54:41;;;;;;;3.08;1.00;;;7.90;92.80;;;;;;5113616;28;20111;-77
2022/11/05 02:57:07;;;;;;;4.25;1.27;;;7.90;93.00;;;;;;5113750;28;20108;-78
2022/11/05 02:59:33;;;;;;;3.50;1.00;;;7.90;93.10;;;;;;5113406;28;20475;-78
2022/11/05 03:02:01;;;;;;;1.83;1.00;;;8.00;93.10;;;;;;5113380;28;20036;-76
2022/11/05 03:04:29;;;;;;;4.28;0.80;;;8.00;93.10;;;;;;5113278;28;20043;-77
2022/11/05 03:07:02;;;;;;;4.13;1.00;;;8.00;92.70;;;;;;5096587;28;20386;-75
2022/11/05 03:09:46;;;;;;;2.85;1.02;;;8.00;92.60;;;;;;5096298;28;20071;-78
2022/11/05 03:12:21;;;;;;;2.30;0.93;;;8.00;92.70;;;;;;5113192;28;20047;-78
2022/11/05 03:14:54;;;;;;;;;;;8.00;92.90;;;;;;5096464;28;20051;-78
2022/11/05 03:17:30;;;;;;;4.28;0.85;;;8.00;93.10;;;;;;5096078;28;19976;-77
2022/11/05 03:20:21;;;;;;;4.35;1.20;;;8.10;93.20;;;;;;5112605;28;20399;-76
2022/11/05 03:23:13;;;;;;;5.32;1.20;;;8.10;93.00;;;;;;5113023;28;20042;-76
2022/11/05 03:26:05;;;;;;;2.50;0.95;;;8.10;93.20;;;;;;5093892;28;20414;-77
2022/11/05 03:28:34;;;;;;;3.08;1.60;;;8.10;93.50;;;;;;5096145;28;20387;-77
2022/11/05 03:31:02;;;;;;;4.25;1.60;;;8.10;93.50;;;;;;5113082;28;20104;-77
2022/11/05 03:33:31;;;;;;;3.72;1.75;;;8.10;93.40;;;;;;5112705;28;20044;-76
2022/11/05 03:36:02;;;;;;;4.65;1.90;;;8.00;93.90;;;;;;5095825;28;20039;-77
2022/11/05 03:38:33;;;;;;;4.85;1.75;;;8.00;94.00;;;;;;5112683;28;20065;-78
2022/11/05 03:41:03;;;;;;;5.38;2.17;;;7.90;94.00;;;;;;5112725;28;20043;-77
2022/11/05 03:43:34;;;;;;;4.97;1.92;;;7.80;94.10;;;;;;5112666;28;20031;-77
2022/11/05 03:46:10;;;;;;;6.05;2.10;;;7.70;94.30;;;;;;5095983;28;20062;-77
2022/11/05 03:48:43;;;;;;;7.32;2.20;;;7.60;94.30;;;;;;5095449;28;20069;-77
2022/11/05 03:51:41;;;;;;;4.82;2.33;;;7.60;94.40;;;;;;5095888;28;20043;-77
2022/11/05 03:54:08;;;;;;;6.82;2.65;;;7.50;94.50;;;;;;5095426;28;20039;-78
2022/11/05 03:56:52;;;;;;;3.40;2.05;;;7.50;94.50;;;;;;5095372;28;20177;-77
2022/11/05 03:59:20;;;;;;;10.00;3.50;;;7.50;94.30;;;;;;5095636;28;20035;-77
2022/11/05 04:01:46;;;;;;;5.32;2.05;;;7.50;94.40;;;;;;5078465;28;20035;-78
2022/11/05 04:04:12;;;;;;;7.05;1.98;;;7.40;94.50;;;;;;5078602;28;20073;-77
2022/11/05 04:14:52;;;;;;;3.90;2.03;;;7.70;94.00;;;;;;5115276;28;20316;-77
2022/11/05 04:17:18;;;;;;;5.57;1.95;;;7.80;94.00;;;;;;5080048;28;20040;-76
2022/11/05 04:25:20;;;;;;;4.53;1.70;;;7.90;93.50;;;;;;5097847;28;20051;-76
2022/11/05 04:27:46;;;;;;;6.82;2.17;;;7.90;93.80;;;;;;5111950;28;20097;-76
2022/11/05 04:30:23;;;;;;;5.43;2.10;;;7.90;93.40;;;;;;5096470;28;20043;-75
2022/11/05 04:33:04;;;;;;;8.52;2.30;;;8.00;93.50;;;;;;5116356;28;20512;-80
2022/11/05 04:35:33;;;;;;;3.20;2.05;;;8.10;93.40;;;;;;5116181;28;20539;-77
2022/11/05 04:37:59;;;;;;;8.55;2.20;;;8.10;93.70;;;;;;5099435;28;20035;-76
2022/11/05 04:40:25;;;;;;;9.50;2.08;;;8.10;93.40;;;;;;5099169;28;20493;-77
2022/11/05 04:42:54;;;;;;;5.45;2.15;;;8.10;93.20;;;;;;5116464;28;20040;-79
2022/11/05 04:45:20;;;;;;;6.75;2.22;;;8.20;93.30;;;;;;5116067;28;20502;-78
2022/11/05 04:47:46;;;;;;;4.82;2.17;;;8.20;93.50;;;;;;5099157;28;20067;-78
2022/11/05 04:50:12;;;;;;;10.20;2.30;;;8.20;93.90;;;;;;5098885;28;20509;-79
2022/11/05 04:52:38;;;;;;;8.45;2.13;;;8.20;94.00;;;;;;5115965;28;20044;-78
2022/11/05 04:55:05;;;;;;;4.40;2.20;;;8.20;94.20;;;;;;5098928;28;20065;-78
2022/11/05 04:57:30;;;;;;;5.70;2.60;;;8.20;94.00;;;;;;5098864;28;20522;-78
2022/11/05 04:59:56;;;;;;;6.47;2.42;;;8.30;93.80;;;;;;5115831;28;20165;-78
2022/11/05 05:02:22;;;;;;;4.00;2.20;;;8.30;93.70;;;;;;5065573;28;20035;-77
2022/11/05 05:04:47;;;;;;;6.22;2.08;;;8.30;93.70;;;;;;5065204;28;20507;-80
2022/11/05 05:07:13;;;;;;;3.45;1.70;;;8.40;93.80;;;;;;5098551;28;20116;-80
2022/11/05 05:09:39;;;;;;;4.68;1.50;;;8.40;93.70;;;;;;5098472;28;20043;-80
2022/11/05 05:12:05;;;;;;;5.05;1.73;;;8.40;93.70;;;;;;5098575;28;20046;-80
2022/11/05 05:14:31;;;;;;;6.30;1.73;;;8.40;93.60;;;;;;5115174;28;20044;-78
2022/11/05 05:16:56;;;;;;;5.60;1.20;;;8.40;93.50;;;;;;5115690;28;20048;-79
2022/11/05 05:19:25;;;;;;;5.22;1.80;;;8.40;93.40;;;;;;5098602;28;20031;-79
2022/11/05 05:21:51;;;;;;;5.75;1.40;;;8.40;93.40;;;;;;5081470;28;20506;-79
2022/11/05 05:24:19;;;;;;;5.03;1.83;;;8.40;93.30;;;;;;5098228;28;20086;-80
2022/11/05 05:26:49;;;;;;;6.00;1.92;;;8.40;93.10;;;;;;5115218;28;20039;-79
2022/11/05 05:29:16;;;;;;;3.88;1.60;;;8.30;93.00;;;;;;5115418;28;20036;-77
2022/11/05 05:31:42;;;;;;;5.57;1.77;;;8.30;93.10;;;;;;5098194;28;20050;-79
2022/11/05 05:34:11;;;;;;;4.43;1.60;;;8.30;93.00;;;;;;5081414;28;20040;-79
2022/11/05 05:36:37;;;;;;;5.03;1.92;;;8.30;93.00;;;;;;5098031;28;20044;-77
2022/11/05 05:39:07;;;;;;;6.22;1.60;;;8.20;93.00;;;;;;5081134;28;20027;-79
2022/11/05 05:41:33;;;;;;;5.88;1.70;;;8.10;92.90;;;;;;5097206;28;20039;-78
2022/11/05 05:43:58;;;;;;;2.88;1.30;;;8.10;92.90;;;;;;5081082;28;20040;-80
2022/11/05 05:46:24;;;;;;;7.47;1.50;;;8.00;92.80;;;;;;5098025;28;20050;-76
2022/11/05 05:48:51;;;;;;;5.38;1.58;;;8.00;92.70;;;;;;5097541;28;20104;-76
2022/11/05 05:51:18;;;;;;;2.88;1.33;;;7.80;92.70;;;;;;5098023;28;20039;-79
2022/11/05 05:53:44;;;;;;;4.22;1.85;;;7.80;92.70;;;;;;5114897;28;20054;-78
2022/11/05 05:56:13;;;;;;;6.22;2.20;;;7.70;92.70;;;;;;5086711;27;20319;-78
2022/11/05 05:58:39;;;;;;;4.72;1.50;;;7.60;92.70;;;;;;5125082;27;20114;-79
2022/11/05 06:01:11;;;;;;;6.85;1.88;;;7.60;92.70;;;;;;5100517;28;20032;-77
2022/11/05 06:03:36;;;;;;;5.45;1.92;;;7.50;92.80;;;;;;5080574;28;20493;-78
2022/11/05 06:06:07;;;;;;;4.18;1.80;;;7.40;92.90;;;;;;5097512;28;20043;-79
2022/11/05 06:08:34;;;;;;;4.65;1.90;;;7.40;93.10;;;;;;5114347;28;20450;-77
2022/11/05 06:11:01;;;;;;;4.05;3.17;;;7.40;93.20;;;;;;5114519;28;20040;-76
2022/11/05 06:13:27;;;;;;;4.63;2.90;;;7.40;93.20;;;;;;5114524;28;20075;-78
2022/11/05 06:15:53;;;;;;;5.43;2.70;;;7.30;93.40;;;;;;5080297;28;20517;-77
2022/11/05 06:18:18;;;;;;;5.85;2.50;;;7.30;93.80;;;;;;5097484;28;20036;-79
2022/11/05 06:20:44;;;;;;;5.43;2.60;;;7.40;94.30;;;;;;5097559;28;20471;-78
2022/11/05 06:23:10;;;;;;;8.63;3.55;;;7.40;94.50;;;;;;5097499;28;20127;-78
2022/11/05 06:25:36;;;;;;;6.30;3.45;;;7.40;94.30;;;;;;5080402;28;20070;-78
2022/11/05 06:28:01;;;;;;;6.40;3.22;;;7.40;94.80;;;;;;5097365;28;20079;-80
2022/11/05 06:30:27;;;;;;;5.03;3.00;;;7.50;94.80;;;;;;5097001;28;20441;-82
2022/11/05 06:32:52;;;;;;;4.75;3.17;;;7.50;94.70;;;;;;5080194;28;20088;-77
2022/11/05 06:35:18;;;;;;;5.53;2.70;;;7.40;94.90;;;;;;5096734;28;20044;-79
2022/11/05 06:37:44;;;;;;;4.03;3.15;;;7.50;94.50;;;;;;5095630;27;20498;-79
2022/11/05 06:40:10;;;;;;;5.65;3.33;;;7.50;94.50;;;;;;5082124;27;20084;-77
2022/11/05 06:42:35;;;;;;;5.65;4.07;;;7.50;94.40;;;;;;5100107;27;20031;-80
2022/11/05 06:45:02;;;;;;;7.65;3.80;;;7.40;94.50;;;;;;5083348;27;20051;-79
2022/11/05 06:47:27;;;;;;;6.18;3.58;;;7.40;94.50;;;;;;5134156;27;20039;-81
2022/11/05 06:49:53;;;;;;;8.15;4.28;;;7.30;94.70;;;;;;5117375;27;20065;-82
2022/11/05 06:52:19;;;;;;;5.72;3.85;;;7.30;94.70;;;;;;5121918;27;20524;-76
2022/11/05 06:54:45;;;;;;;4.40;3.00;;;7.30;94.50;;;;;;5112556;28;20043;-79
2022/11/05 06:57:11;;;;;;;6.70;3.75;;;7.40;94.40;;;;;;5113453;28;20475;-78
2022/11/05 06:59:40;;;;;;;5.28;3.63;;;7.40;94.80;;;;;;5096560;28;20122;-78
2022/11/05 07:02:09;;;;;;;6.13;4.43;;;7.50;94.20;;;;;;5096586;28;20507;-77
2022/11/05 07:04:35;;;;;;;5.85;3.33;;;7.50;94.90;;;;;;5096645;28;20080;-80
2022/11/05 07:07:01;;;;;;;11.10;4.47;;;7.50;94.90;;;;;;5079730;28;20406;-78
2022/11/05 07:09:27;;;;;;;6.18;2.97;;;7.60;95.30;;;;;;5113452;28;20126;-77
2022/11/05 07:11:53;;;;;;;5.15;3.13;;;7.60;95.10;;;;;;5096191;28;20126;-78
2022/11/05 07:14:19;;;;;;;7.78;3.50;;;7.70;95.10;;;;;;5112959;28;20040;-77
2022/11/05 07:16:45;;;;;;;7.13;3.75;;;7.70;95.00;;;;;;5115704;27;20388;-80
2022/11/05 07:19:10;;;;;;;4.80;3.40;;;7.80;95.10;;;;;;5116811;27;20359;-77
2022/11/05 07:21:36;;;;;;;4.70;3.15;;;7.80;95.00;;;;;;5133440;27;20447;-77
2022/11/05 07:24:02;;;;;;;6.00;2.90;;;7.90;94.70;;;;;;5133570;27;20042;-77
2022/11/05 07:26:27;;;;;;;6.03;2.50;;;8.00;94.40;;;;;;5095560;28;20039;-75
2022/11/05 07:28:54;;;;;;;7.78;3.13;;;8.10;94.20;;;;;;5079211;28;20040;-76
2022/11/05 07:31:20;;;;;;;4.05;2.80;;;8.10;94.40;;;;;;5112865;28;20073;-77
2022/11/05 07:33:45;;;;;;;9.05;3.20;;;8.20;94.20;;;;;;5112853;28;20043;-78
2022/11/05 07:36:11;;;;;;;6.85;2.95;;;8.20;94.00;;;;;;5078847;28;20043;-78
2022/11/05 07:38:37;;;;;;;5.40;2.65;;;8.30;94.00;;;;;;5095635;28;20027;-77
2022/11/05 07:41:02;;;;;;;4.90;2.90;;;8.30;93.90;;;;;;5095762;28;20477;-77
2022/11/05 07:43:28;;;;;;;5.78;2.85;;;8.30;93.90;;;;;;5095864;28;20414;-77
2022/11/05 07:45:54;;;;;;;8.77;3.30;;;8.40;93.80;;;;;;5078794;28;20506;-80
2022/11/05 07:48:19;;;;;;;8.77;3.42;;;8.50;93.80;;;;;;5095462;28;20038;-79
2022/11/05 07:50:45;;;;;;;7.30;3.53;;;8.50;93.80;;;;;;5078568;28;20036;-78
2022/11/05 07:53:13;;;;;;;6.07;3.60;;;8.60;93.80;;;;;;5078525;28;20472;-77
2022/11/05 07:55:42;;;;;;;4.25;2.63;;;8.60;93.80;;;;;;5112382;28;20057;-79
2022/11/05 07:58:09;;;;;;;5.28;3.35;;;8.80;93.80;;;;;;5095436;28;20047;-79
2022/11/05 08:00:35;;;;;;;6.13;3.40;;;8.90;94.00;;;;;;5095369;28;20122;-79
2022/11/05 08:03:04;;;;;;;7.10;2.90;;;9.00;94.00;;;;;;5095142;28;20040;-79
2022/11/05 08:05:35;;;;;;;9.68;5.47;;;9.10;93.90;;;;;;5095056;28;20073;-80
2022/11/05 08:08:02;;;;;;;10.98;5.57;;;9.20;93.70;;;;;;5112399;28;20048;-80
2022/11/05 08:10:28;;;;;;;9.25;4.28;;;9.40;93.60;;;;;;5112529;28;20044;-78
2022/11/05 08:12:54;;;;;;;9.52;4.10;;;9.50;94.40;;;;;;5095169;28;20075;-77
2022/11/05 08:15:22;;;;;;;5.32;3.67;;;9.60;93.70;;;;;;5112106;28;20441;-77
2022/11/05 08:17:49;;;;;;;8.75;4.13;;;9.60;93.70;;;;;;5112123;28;20044;-80
2022/11/05 08:20:15;;;;;;;5.95;4.20;;;9.60;93.50;;;;;;5095176;28;20036;-79
2022/11/05 08:22:43;;;;;;;7.68;4.07;;;9.70;93.50;;;;;;5112073;28;20043;-81
2022/11/05 08:25:09;;;;;;;12.90;5.95;;;9.60;93.90;;;;;;5095172;28;20491;-80
2022/11/05 08:27:34;;;;;;;9.30;5.75;;;9.70;93.70;;;;;;5078540;28;20086;-77
2022/11/05 08:30:00;;;;;;;11.30;5.25;;;9.70;93.60;;;;;;5063093;28;20471;-80
2022/11/05 08:32:26;;;;;;;12.50;8.18;;;9.70;93.60;;;;;;5098395;28;20035;-80
2022/11/05 08:34:51;;;;;;;9.55;7.07;;;9.70;93.60;;;;;;5098538;28;20093;-79
2022/11/05 08:37:17;;;;;;;9.43;4.68;;;9.70;93.60;;;;;;5115734;28;20045;-80
2022/11/05 08:39:42;;;;;;;8.20;4.03;;;9.60;93.50;;;;;;5098512;28;20482;-78
2022/11/05 08:42:08;;;;;;;7.57;4.35;;;9.60;93.50;;;;;;5098317;28;20039;-79
2022/11/05 08:44:34;;;;;;;11.52;3.97;;;9.60;93.50;;;;;;5115534;28;20078;-81
2022/11/05 08:46:59;;;;;;;7.28;3.50;;;9.60;93.50;;;;;;5115526;28;20040;-79
2022/11/05 08:49:25;;;;;;;6.88;3.45;;;9.70;93.50;;;;;;5132534;28;20047;-79
2022/11/05 08:51:51;;;;;;;7.47;3.63;;;9.70;93.30;;;;;;5115402;28;20103;-78
2022/11/05 08:54:16;;;;;;;11.95;3.90;;;9.80;93.80;;;;;;5081923;28;20184;-76
2022/11/05 08:56:42;;;;;;;8.07;3.72;;;10.00;94.20;;;;;;5132783;28;20073;-79
2022/11/05 08:59:08;;;;;;;9.90;3.13;;;10.10;93.60;;;;;;5098961;28;20031;-78
2022/11/05 09:01:34;;;;;;;6.85;3.13;;;10.20;93.70;;;;;;5115662;28;20039;-80
2022/11/05 09:04:00;;;;;;;4.68;2.85;;;10.30;93.30;;;;;;5115645;28;20042;-78
2022/11/05 09:06:26;;;;;;;10.60;4.47;;;10.50;93.10;;;;;;5115404;28;20047;-78
2022/11/05 09:08:51;;;;;;;7.00;2.78;;;10.60;92.70;;;;;;5132925;28;20454;-76
2022/11/05 09:11:17;;;;;;;8.43;3.25;;;10.80;92.60;;;;;;5133385;28;20092;-77
2022/11/05 09:13:43;;;;;;;5.32;2.70;;;10.90;92.40;;;;;;5133056;28;20127;-79
2022/11/05 09:16:19;;;;;;;7.20;2.90;;;11.00;91.90;;;;;;5098721;28;20437;-80
2022/11/05 09:18:45;;;;;;;4.80;3.10;;;11.10;91.70;;;;;;5119770;27;20119;-80
2022/11/05 09:21:11;;;;;;;8.88;3.05;;;11.30;91.50;;;;;;5119475;27;20107;-78
2022/11/05 09:23:37;;;;;;;6.43;3.15;;;11.40;91.40;;;;;;5119073;27;20039;-78
2022/11/05 09:26:03;;;;;;;10.52;5.57;;;11.50;90.80;;;;;;5118914;27;20081;-79
2022/11/05 09:28:30;;;;;;;15.48;6.53;;;11.60;90.50;;;;;;5118971;27;20039;-81
2022/11/05 09:30:56;;;;;;;20.50;10.05;;;11.60;90.00;;;;;;5119411;27;20455;-78
2022/11/05 09:33:24;;;;;;;12.65;6.95;;;11.60;88.30;;;;;;5102006;27;20156;-80
2022/11/05 09:35:50;;;;;;;9.43;6.70;;;11.70;89.10;;;;;;5136164;27;20141;-81
2022/11/05 09:38:16;;;;;;;9.30;5.70;;;11.70;89.00;;;;;;5136192;27;20047;-81
2022/11/05 09:40:50;;;;;;;6.85;3.90;;;11.70;88.70;;;;;;5102064;27;20038;-81
2022/11/05 09:43:20;;;;;;;9.15;3.20;;;11.80;88.50;;;;;;5119366;27;20047;-80
2022/11/05 09:45:49;;;;;;;10.80;4.50;;;11.80;88.30;;;;;;5136829;27;20490;-80
2022/11/05 09:48:19;;;;;;;7.53;4.03;;;11.80;88.20;;;;;;5137221;27;20035;-82
2022/11/05 09:50:46;;;;;;;6.82;3.13;;;11.80;88.20;;;;;;5118517;27;20035;-81
2022/11/05 09:53:15;;;;;;;6.63;3.03;;;11.80;88.10;;;;;;5101612;27;20474;-81
2022/11/05 09:55:44;;;;;;;5.88;2.55;;;11.90;88.00;;;;;;5135781;27;20042;-82
2022/11/05 09:58:21;;;;;;;6.72;2.95;;;11.90;87.80;;;;;;5118833;27;20035;-81
2022/11/05 10:00:51;;;;;;;5.93;3.10;;;11.90;87.90;;;;;;5136112;27;20503;-82
2022/11/05 10:03:22;;;;;;;13.52;5.75;;;11.90;88.10;;;;;;5119172;27;20042;-82
2022/11/05 10:05:50;;;;;;;9.88;3.35;;;12.00;88.10;;;;;;5118791;27;20417;-82
2022/11/05 10:08:33;;;;;;;5.22;2.67;;;12.10;87.90;;;;;;5135611;27;20035;-80
2022/11/05 10:11:07;;;;;;;5.05;2.58;;;12.20;87.60;;;;;;5135505;27;20124;-80
2022/11/05 10:13:49;;;;;;;6.82;4.10;;;12.40;86.40;;;;;;5134247;27;20425;-80
2022/11/05 10:16:24;;;;;;;6.60;3.33;;;12.50;85.40;;;;;;5135249;27;20048;-80
2022/11/05 10:18:56;;;;;;;7.75;3.05;;;12.50;85.30;;;;;;5135071;27;20050;-79
2022/11/05 10:21:21;;;;;;;8.32;3.20;;;12.50;85.30;;;;;;5135412;27;20057;-80
2022/11/05 10:23:47;;;;;;;4.55;2.15;;;12.60;85.00;;;;;;5118212;27;20482;-80
2022/11/05 10:26:18;;;;;;;7.75;2.67;;;12.70;84.20;;;;;;5117956;27;20035;-80
2022/11/05 10:28:44;;;;;;;9.00;3.30;;;12.60;83.50;;;;;;5117766;27;20035;-79
2022/11/05 10:31:16;;;;;;;7.32;3.25;;;12.60;84.50;;;;;;5118180;27;20057;-79
2022/11/05 10:33:59;;;;;;;10.10;3.63;;;12.60;84.80;;;;;;5117734;27;20039;-79
2022/11/05 10:36:32;;;;;;;7.20;3.05;;;12.60;85.10;;;;;;5135262;27;20519;-80
2022/11/05 10:39:09;;;;;;;6.22;2.70;;;12.60;84.40;;;;;;5118102;27;20035;-80
2022/11/05 10:41:42;;;;;;;3.72;2.53;;;12.70;84.30;;;;;;5134786;27;20031;-79
2022/11/05 10:44:27;;;;;;;9.15;2.65;;;12.70;84.50;;;;;;5134788;27;20087;-79
2022/11/05 10:47:05;;;;;;;5.88;1.98;;;12.70;83.30;;;;;;5117648;27;20051;-79
2022/11/05 10:49:30;;;;;;;4.28;2.63;;;13.00;83.90;;;;;;5134673;27;20043;-80
2022/11/05 10:51:58;;;;;;;5.80;2.80;;;12.90;82.10;;;;;;5134762;27;20079;-80
2022/11/05 10:54:32;;;;;;;9.63;2.92;;;13.00;82.70;;;;;;5134754;27;20065;-78
2022/11/05 10:56:58;;;;;;;5.35;2.08;;;13.00;81.90;;;;;;5134473;27;20043;-78
2022/11/05 10:59:28;;;;;;;5.45;2.38;;;13.00;82.10;;;;;;5100449;27;20032;-78
2022/11/05 11:02:11;;;;;;;11.82;4.32;;;12.90;81.80;;;;;;5134378;27;20038;-78
2022/11/05 11:04:37;;;;;;;25.73;13.82;;;12.80;82.30;;;;;;5117878;27;20459;-78
2022/11/05 11:07:03;;;;;;;7.55;5.45;;;12.60;82.30;;;;;;5117954;27;20047;-79
2022/11/05 11:09:35;;;;;;;8.23;4.38;;;12.50;82.60;;;;;;5134140;27;20039;-78
2022/11/05 11:12:12;;;;;;;10.55;6.15;;;12.50;83.00;;;;;;5134217;27;20123;-79
2022/11/05 11:14:39;;;;;;;6.50;2.63;;;12.50;83.00;;;;;;5134267;27;20039;-79
2022/11/05 11:17:28;;;;;;;5.78;3.08;;;12.50;83.40;;;;;;5133828;27;20376;-78
2022/11/05 11:20:13;;;;;;;7.30;2.75;;;12.40;83.70;;;;;;5133964;27;20043;-78
2022/11/05 11:22:42;;;;;;;8.02;3.67;;;12.40;83.70;;;;;;5116775;27;20071;-79
2022/11/05 11:25:25;;;;;;;5.80;3.15;;;12.30;84.10;;;;;;5100491;27;20045;-78
2022/11/05 11:27:51;;;;;;;7.63;2.13;;;12.20;84.50;;;;;;5116880;27;20039;-79
2022/11/05 11:30:19;;;;;;;2.92;2.38;;;12.20;84.40;;;;;;5100086;27;20424;-78
2022/11/05 11:32:46;;;;;;;4.30;1.75;;;12.10;84.20;;;;;;5133556;27;20092;-79
2022/11/05 11:35:23;;;;;;;4.55;1.65;;;12.00;84.20;;;;;;5133194;27;20126;-77
2022/11/05 11:37:52;;;;;;;5.07;2.10;;;12.00;84.70;;;;;;5133530;27;20042;-78
2022/11/05 11:40:23;;;;;;;4.20;2.10;;;11.80;83.70;;;;;;5132854;27;20043;-79
2022/11/05 11:42:56;;;;;;;4.20;1.45;;;11.70;84.20;;;;;;5133162;27;20539;-77
2022/11/05 11:45:46;;;;;;;3.00;1.30;;;11.40;85.10;;;;;;5132154;27;20054;-77
2022/11/05 11:48:21;;;;;;;1.75;1.00;;;11.10;84.90;;;;;;5133245;27;20043;-79
2022/11/05 11:50:47;;;;;;;4.80;2.58;;;11.00;85.30;;;;;;5133611;27;20081;-78
2022/11/05 11:53:19;;;;;;;5.93;2.25;;;10.90;85.40;;;;;;5099518;27;20043;-79
2022/11/05 11:55:54;;;;;;;3.45;1.42;;;10.80;86.10;;;;;;5133375;27;20039;-80
2022/11/05 11:58:21;;;;;;;3.42;1.50;;;10.80;86.40;;;;;;5116172;27;20035;-78
2022/11/05 12:01:09;;;;;;;4.85;1.48;;;10.80;88.20;;;;;;5116533;27;20194;-79
2022/11/05 12:03:46;;;;;;;4.32;1.48;;;10.80;88.10;;;;;;5133814;27;20075;-78
2022/11/05 12:06:38;;;;;;;2.78;1.35;;;10.70;89.10;;;;;;5133296;27;20039;-78
2022/11/05 12:09:54;;;;;;;1.90;1.10;;;10.70;89.10;;;;;;5116372;27;20393;-77
2022/11/05 12:12:29;;;;;;;2.80;1.65;;;10.80;89.00;;;;;;5098806;27;20125;-78
2022/11/05 12:15:00;;;;;;;;;;;10.60;89.40;;;;;;5133617;27;20043;-77
2022/11/05 12:17:54;;;;;;;5.65;2.00;;;10.60;90.20;;;;;;5133758;27;19919;-79
2022/11/05 12:21:03;;;;;;;5.20;1.60;;;10.60;90.40;;;;;;5133291;27;20039;-77
2022/11/05 12:23:50;;;;;;;3.50;1.60;;;10.60;90.50;;;;;;5132961;28;20037;-79
2022/11/05 12:26:23;;;;;;;4.53;2.00;;;10.50;91.00;;;;;;5116375;28;20050;-78
2022/11/05 12:29:14;;;;;;;4.72;2.72;;;10.60;91.00;;;;;;5133750;28;20045;-79
2022/11/05 12:32:06;;;;;;;6.00;2.97;;;10.50;91.50;;;;;;5133596;28;20039;-80
2022/11/05 12:34:54;;;;;;;5.15;3.42;;;10.60;91.40;;;;;;5116668;28;20096;-78
2022/11/05 12:37:45;;;;;;;7.43;3.25;;;10.50;92.70;;;;;;5133700;28;20047;-78
2022/11/05 12:40:38;;;;;;;4.25;2.50;;;10.50;92.90;;;;;;5133319;28;20039;-80
2022/11/05 12:43:18;;;;;;;8.00;4.13;;;10.50;91.90;;;;;;5133103;28;20050;-80
2022/11/05 12:46:07;;;;;;;6.38;3.53;;;10.50;92.70;;;;;;5133154;28;20045;-78
2022/11/05 12:48:52;;;;;;;7.65;3.58;;;10.50;93.50;;;;;;5132986;28;20406;-79
2022/11/05 12:51:55;;;;;;;8.30;3.22;;;10.60;93.80;;;;;;5117275;27;20117;-80
2022/11/05 12:54:51;;;;;;;6.95;3.40;;;10.60;93.60;;;;;;5136991;27;20047;-78
2022/11/05 12:57:20;;;;;;;9.55;4.38;;;10.80;93.60;;;;;;5119691;27;20471;-80
2022/11/05 13:00:01;;;;;;;11.68;6.25;;;10.90;93.30;;;;;;5119918;27;20359;-78
2022/11/05 13:02:39;;;;;;;11.35;4.85;;;11.00;93.00;;;;;;5137007;27;20031;-76
2022/11/05 13:05:33;;;;;;;9.52;5.35;;;11.30;92.70;;;;;;5136999;27;20043;-76
2022/11/05 13:08:24;;;;;;;8.90;4.22;;;11.40;91.80;;;;;;5136558;27;20046;-76
2022/11/05 13:11:02;;;;;;;10.93;5.55;;;11.50;91.30;;;;;;5136334;27;20518;-77
2022/11/05 13:13:30;;;;;;;6.32;4.38;;;11.60;90.40;;;;;;5136435;27;20042;-79
2022/11/05 13:16:02;;;;;;;7.43;3.83;;;11.60;90.50;;;;;;5136332;27;20368;-79
2022/11/05 13:18:41;;;;;;;9.43;3.83;;;11.70;90.50;;;;;;5102620;27;20035;-78
2022/11/05 13:21:09;;;;;;;8.38;4.65;;;11.70;90.00;;;;;;5119259;27;20035;-77
2022/11/05 13:23:44;;;;;;;9.38;3.92;;;11.70;90.00;;;;;;5119906;27;20044;-79
2022/11/05 13:26:21;;;;;;;7.95;3.65;;;11.80;89.70;;;;;;5136473;27;20046;-78
2022/11/05 13:29:11;;;;;;;5.70;3.17;;;11.80;89.30;;;;;;5136375;27;20058;-81
2022/11/05 13:31:46;;;;;;;7.90;3.58;;;11.70;89.50;;;;;;5136337;27;20042;-80
2022/11/05 13:34:12;;;;;;;12.35;4.45;;;11.60;89.40;;;;;;5136254;27;20060;-79
2022/11/05 13:39:58;;;;;;;9.68;3.78;;;11.60;89.70;;;;;;5136075;27;20069;-77
2022/11/05 13:43:11;;;;;;;11.55;4.85;;;11.60;89.80;;;;;;5119114;27;20066;-77
2022/11/05 13:46:10;;;;;;;10.15;4.47;;;11.50;89.90;;;;;;5057116;28;20041;-78
2022/11/05 13:48:56;;;;;;;8.55;4.28;;;11.50;90.10;;;;;;5057382;28;20041;-79
2022/11/05 13:51:50;;;;;;;10.57;4.60;;;11.40;89.70;;;;;;5105623;27;20137;-79
2022/11/05 13:54:44;;;;;;;7.80;4.22;;;11.40;89.70;;;;;;5118580;27;20043;-77
2022/11/05 13:57:27;;;;;;;8.07;3.80;;;11.30;89.50;;;;;;5118472;27;20075;-79